Watford, Canada
Current Conditions -  °F | °C
As of 7:00 AM on Sunday 21 Dec 2014 (Local Time) from CYZR Reporting Station
Overcast Overcast  
Wind Chill: -2°   Ceiling: 3000
Heat Index: -2°   Visibility: 9mi
Dew Point: -6°   Wind: 2mph
Humidity: 74%   Direction: 180°S
Pressure: 30.32"   Gusts: NA
Location:  42.95°N, 81.88°W
Report Text: CYZR 211200Z AUTO 18002KT 9SM OVC030 M02/M06 A3032 RMK SLP276
Loading
Personal Weather Stations






























Interactive Weather Map New forecast layout! Learn more

10-Day Weather Forecast

Advertisements
Track Severe Weather on mobile